Time;durP1;ratioP1;P1;durP2;ratioP2;P2;SDS_P1;SDS_P2;PMS_P1;PMS_P2;Temp;Humidity;BMP_temperature;BMP_pressure;BME280_temperature;BME280_humidity;BME280_pressure;Samples;Min_cycle;Max_cycle;Signal;HPM_P1;HPM_P2
2023/02/26 00:01:26;;;;;;;4.67;2.67;;;;;;;6.15;43.78;96923.88;4960267;28;20431;-70
2023/02/26 00:03:53;;;;;;;7.33;2.40;;;;;;;6.15;44.08;96924.69;4951956;28;20980;-71
2023/02/26 00:06:19;;;;;;;3.70;2.30;;;;;;;6.10;44.38;96926.03;4953358;28;20430;-69
2023/02/26 00:08:45;;;;;;;2.13;2.00;;;;;;;6.12;44.19;96929.34;4965678;28;20437;-69
2023/02/26 00:11:11;;;;;;;3.70;2.57;;;;;;;6.17;43.97;96923.72;4951127;28;20430;-69
2023/02/26 00:13:38;;;;;;;2.70;2.23;;;;;;;6.21;44.19;96931.16;4964434;28;20248;-71
2023/02/26 00:16:12;;;;;;;3.47;2.13;;;;;;;6.13;44.19;96941.41;4934060;29;20469;-70
2023/02/26 00:18:38;;;;;;;3.87;2.60;;;;;;;6.14;44.52;96933.44;4928351;29;20865;-69
2023/02/26 00:21:04;;;;;;;4.27;3.03;;;;;;;6.10;43.58;96924.28;4959850;28;20433;-70
2023/02/26 00:23:29;;;;;;;7.67;2.87;;;;;;;6.04;43.64;96929.19;4959531;28;20217;-72
2023/02/26 00:25:56;;;;;;;3.90;2.70;;;;;;;6.04;44.35;96921.38;4951410;28;20589;-70
2023/02/26 00:28:22;;;;;;;3.30;2.90;;;;;;;6.02;44.25;96924.09;4958968;28;20266;-70
2023/02/26 00:30:48;;;;;;;5.10;3.00;;;;;;;6.03;44.11;96932.72;4950668;28;20908;-71
2023/02/26 00:33:13;;;;;;;12.83;3.00;;;;;;;6.05;43.88;96923.84;4953969;28;20550;-71
2023/02/26 00:35:39;;;;;;;4.90;2.33;;;;;;;5.96;43.84;96925.41;4951044;28;20214;-70
2023/02/26 00:38:07;;;;;;;4.07;2.20;;;;;;;5.91;43.70;96930.19;4954601;28;20720;-70
2023/02/26 00:40:44;;;;;;;4.20;3.10;;;;;;;5.87;43.87;96938.34;4932354;29;20210;-70
2023/02/26 00:43:13;;;;;;;7.43;2.43;;;;;;;5.84;43.73;96929.03;4952504;28;20437;-71
2023/02/26 00:45:44;;;;;;;4.90;2.40;;;;;;;5.78;43.80;96929.56;4950514;28;20429;-70
2023/02/26 00:48:37;;;;;;;5.23;2.73;;;;;;;5.79;44.32;96931.22;4934187;28;20430;-70
2023/02/26 00:51:25;;;;;;;9.80;2.47;;;;;;;5.75;43.64;96932.41;4964905;28;20467;-70
2023/02/26 00:54:04;;;;;;;5.73;2.73;;;;;;;5.71;43.89;96936.22;4954214;28;21002;-72
2023/02/26 00:56:29;;;;;;;3.80;2.27;;;;;;;5.72;43.93;96937.88;4975179;28;20433;-71
2023/02/26 00:58:55;;;;;;;4.50;2.07;;;;;;;5.69;43.72;96934.56;4940446;29;20438;-70
2023/02/26 01:01:20;;;;;;;4.37;2.60;;;;;;;5.60;43.28;96934.53;4943000;28;20276;-70
2023/02/26 01:03:46;;;;;;;2.90;2.20;;;;;;;5.55;43.39;96932.28;4950748;28;20695;-69
2023/02/26 01:06:12;;;;;;;4.97;2.23;;;;;;;5.53;43.54;96934.22;4956775;28;20691;-71
2023/02/26 01:08:46;;;;;;;4.87;2.80;;;;;;;5.51;43.97;96930.91;4939718;28;20197;-70
2023/02/26 01:11:12;;;;;;;4.03;2.40;;;;;;;5.53;43.95;96929.03;4966880;28;20550;-71
2023/02/26 01:13:38;;;;;;;4.67;2.30;;;;;;;5.48;43.87;96937.16;4962516;28;20559;-72
2023/02/26 01:16:11;;;;;;;4.03;2.80;;;;;;;5.56;43.42;96941.75;4951737;28;20206;-71
2023/02/26 01:18:43;;;;;;;4.93;2.37;;;;;;;5.52;43.76;96938.56;4941468;28;20664;-71
2023/02/26 01:21:19;;;;;;;4.17;2.33;;;;;;;5.52;43.86;96935.16;4936306;28;20430;-71
2023/02/26 01:23:47;;;;;;;5.90;2.40;;;;;;;5.48;43.45;96934.56;4977193;28;20557;-71
2023/02/26 01:26:23;;;;;;;3.17;2.03;;;;;;;5.38;43.80;96928.50;4959424;28;20808;-71
2023/02/26 01:28:49;;;;;;;6.90;2.33;;;;;;;5.41;43.56;96927.44;4950236;28;20927;-69
2023/02/26 01:31:53;;;;;;;3.70;2.33;;;;;;;5.35;43.10;96934.78;4949517;28;20429;-71
2023/02/26 01:34:28;;;;;;;7.10;2.43;;;;;;;5.33;44.15;96923.66;4936142;28;20233;-71
2023/02/26 01:37:33;;;;;;;3.70;2.60;;;;;;;5.33;44.15;96926.28;4950378;28;20949;-71
2023/02/26 01:39:58;;;;;;;9.13;3.00;;;;;;;5.31;43.74;96935.97;4931841;29;20982;-71
2023/02/26 01:42:26;;;;;;;6.53;2.33;;;;;;;5.29;43.56;96924.91;4947438;28;20433;-69
2023/02/26 01:45:24;;;;;;;3.60;2.57;;;;;;;5.28;43.79;96938.84;4939480;29;20754;-70
2023/02/26 01:48:45;;;;;;;3.90;2.70;;;;;;;5.27;43.72;96941.53;4945229;28;21018;-69
2023/02/26 01:51:10;;;;;;;3.37;2.50;;;;;;;5.32;44.36;96942.81;4852511;29;20446;-70
2023/02/26 01:53:36;;;;;;;3.30;2.17;;;;;;;5.30;43.78;96944.72;4947492;28;20456;-70
2023/02/26 01:56:05;;;;;;;6.40;2.77;;;;;;;5.21;43.38;96937.66;4955353;28;20341;-71
2023/02/26 01:58:33;;;;;;;4.60;2.87;;;;;;;5.16;43.84;96947.63;4944602;28;20621;-70
2023/02/26 02:00:59;;;;;;;4.33;2.50;;;;;;;5.20;43.72;96943.81;4936883;29;20422;-70
2023/02/26 02:03:25;;;;;;;4.50;2.87;;;;;;;5.05;43.91;96946.69;4952747;28;20442;-69
2023/02/26 02:05:55;;;;;;;5.03;2.60;;;;;;;5.11;44.33;96939.38;4960069;28;20421;-69
2023/02/26 02:08:21;;;;;;;3.37;2.40;;;;;;;4.97;43.67;96938.72;4936401;28;20418;-70
2023/02/26 02:10:47;;;;;;;2.30;2.07;;;;;;;4.96;43.75;96947.44;4957688;28;20437;-70
2023/02/26 02:13:50;;;;;;;3.40;2.10;;;;;;;4.87;44.60;96938.63;4964124;28;20224;-71
2023/02/26 02:16:17;;;;;;;3.47;2.57;;;;;;;4.98;44.23;96937.78;4953171;28;20453;-68
2023/02/26 02:18:52;;;;;;;4.07;3.23;;;;;;;4.87;44.41;96946.41;4979976;28;20428;-71
2023/02/26 02:21:43;;;;;;;7.40;2.77;;;;;;;4.86;44.06;96946.53;4976103;28;20969;-70
2023/02/26 02:24:31;;;;;;;2.70;2.30;;;;;;;4.83;44.07;96947.63;4939645;28;20449;-70
2023/02/26 02:27:06;;;;;;;7.83;2.03;;;;;;;4.80;44.56;96958.25;4982263;28;20464;-70
2023/02/26 02:30:16;;;;;;;5.33;2.40;;;;;;;4.81;44.04;96959.91;4979215;28;20436;-72
2023/02/26 02:32:49;;;;;;;4.37;2.30;;;;;;;4.72;44.00;96961.44;4942831;28;20964;-71
2023/02/26 02:35:37;;;;;;;3.37;1.90;;;;;;;4.69;44.11;96961.69;4957160;28;20493;-70
2023/02/26 02:38:22;;;;;;;3.00;2.70;;;;;;;4.61;44.50;96966.66;4945771;28;20433;-70
2023/02/26 02:40:51;;;;;;;5.77;2.60;;;;;;;4.64;44.37;96966.44;4933939;29;20489;-71
2023/02/26 02:43:21;;;;;;;2.57;2.27;;;;;;;4.70;44.34;96965.94;4948460;28;20473;-69
2023/02/26 02:45:51;;;;;;;3.73;2.20;;;;;;;4.78;44.12;96974.91;4954652;28;20797;-69
2023/02/26 02:48:25;;;;;;;2.23;2.03;;;;;;;4.74;44.13;96974.28;4944815;28;20430;-71
2023/02/26 02:50:55;;;;;;;3.73;2.40;;;;;;;4.75;44.84;96971.59;4935823;29;20882;-68
2023/02/26 02:53:24;;;;;;;2.87;2.30;;;;;;;4.78;44.06;96977.50;4935247;28;20836;-71
2023/02/26 02:56:01;;;;;;;2.63;2.00;;;;;;;4.71;43.95;96975.38;4941592;28;20886;-69
2023/02/26 02:58:34;;;;;;;4.03;2.47;;;;;;;4.70;43.85;96978.91;4959936;28;20808;-72
2023/02/26 03:01:03;;;;;;;3.40;2.77;;;;;;;4.66;44.12;96972.34;4941334;29;20480;-70
2023/02/26 03:03:48;;;;;;;3.63;2.40;;;;;;;4.56;43.84;96981.75;4952356;28;20494;-70
2023/02/26 03:06:13;;;;;;;5.30;2.10;;;;;;;4.64;44.87;96983.75;4932255;28;20430;-70
2023/02/26 03:08:40;;;;;;;3.57;2.03;;;;;;;4.78;44.09;96982.69;4943655;29;20811;-70
2023/02/26 03:11:07;;;;;;;3.13;2.60;;;;;;;4.78;44.08;96995.69;4943960;29;20186;-70
2023/02/26 03:13:33;;;;;;;2.93;2.30;;;;;;;4.85;43.87;96982.06;4954664;28;20556;-70
2023/02/26 03:16:24;;;;;;;3.73;2.40;;;;;;;4.74;44.69;96988.13;4938154;29;20521;-70
2023/02/26 03:19:27;;;;;;;4.70;2.40;;;;;;;4.79;44.21;96997.34;4975025;28;20212;-71
2023/02/26 03:22:04;;;;;;;4.70;2.50;;;;;;;4.78;44.44;96996.50;4911921;28;20433;-71
2023/02/26 03:24:47;;;;;;;5.70;2.87;;;;;;;4.71;44.49;96996.16;4974240;28;20434;-70
2023/02/26 03:27:22;;;;;;;2.77;2.30;;;;;;;4.67;45.04;97002.50;4938668;28;21242;-71
2023/02/26 03:29:55;;;;;;;4.70;2.13;;;;;;;4.65;44.18;97001.84;4940411;28;20452;-70
2023/02/26 03:32:29;;;;;;;3.67;2.43;;;;;;;4.60;45.12;96998.75;4976897;28;20974;-71
2023/02/26 03:35:25;;;;;;;5.10;3.40;;;;;;;4.52;44.61;97012.34;4941334;28;20460;-70
2023/02/26 03:37:54;;;;;;;4.63;2.63;;;;;;;4.42;44.66;97007.03;4955309;28;20437;-72
2023/02/26 03:40:29;;;;;;;5.90;2.80;;;;;;;4.46;45.16;97007.63;4966582;28;20501;-71
2023/02/26 03:43:18;;;;;;;6.53;3.10;;;;;;;4.45;44.60;97011.97;4955395;28;20415;-70
2023/02/26 03:45:46;;;;;;;5.60;2.40;;;;;;;4.51;45.01;97004.69;4952519;28;20440;-71
2023/02/26 03:48:15;;;;;;;2.63;2.00;;;;;;;4.46;44.49;97003.25;4971614;28;21312;-72
2023/02/26 03:50:51;;;;;;;6.83;2.10;;;;;;;4.51;45.14;97002.91;4954152;28;20422;-69
2023/02/26 03:53:24;;;;;;;5.30;2.30;;;;;;;4.48;44.62;96997.94;4948386;28;20469;-69
2023/02/26 03:55:57;;;;;;;4.00;2.40;;;;;;;4.53;44.63;97001.00;4940386;28;20488;-69
2023/02/26 03:58:23;;;;;;;3.70;2.20;;;;;;;4.43;44.88;97008.69;4957524;28;20429;-71
2023/02/26 04:00:54;;;;;;;4.20;2.30;;;;;;;4.46;44.60;97018.81;4934673;29;20779;-68
2023/02/26 04:03:30;;;;;;;4.43;3.47;;;;;;;4.42;45.03;97024.38;4933808;28;20210;-68
2023/02/26 04:05:55;;;;;;;4.10;2.70;;;;;;;4.38;45.08;97021.19;4942542;29;20438;-70
2023/02/26 04:08:22;;;;;;;9.03;2.53;;;;;;;4.38;45.12;97018.59;4980070;28;20491;-70
2023/02/26 04:11:09;;;;;;;3.60;2.33;;;;;;;4.40;45.83;97016.72;4943087;29;20191;-69
2023/02/26 04:13:35;;;;;;;3.70;2.30;;;;;;;4.34;45.50;97019.78;4960743;28;20512;-70
2023/02/26 04:16:01;;;;;;;6.00;2.53;;;;;;;4.35;45.59;97025.81;4959178;28;20454;-71
2023/02/26 04:18:26;;;;;;;4.70;2.77;;;;;;;4.36;45.32;97025.66;4953212;28;20191;-70
2023/02/26 04:20:51;;;;;;;2.97;2.67;;;;;;;4.27;45.20;97014.22;4962110;28;20186;-70
2023/02/26 04:23:18;;;;;;;4.40;2.70;;;;;;;4.27;44.96;97024.59;4951103;28;20208;-69
2023/02/26 04:25:44;;;;;;;6.93;2.90;;;;;;;4.22;46.02;97031.09;4959515;28;20647;-70
2023/02/26 04:28:10;;;;;;;4.97;3.00;;;;;;;4.08;45.48;97026.94;4941524;28;20996;-69
2023/02/26 04:30:35;;;;;;;4.40;3.13;;;;;;;4.09;46.00;97033.78;4949003;28;20425;-70
2023/02/26 04:33:00;;;;;;;4.17;2.50;;;;;;;4.03;45.92;97032.50;4951277;28;20190;-70
2023/02/26 04:35:26;;;;;;;7.80;3.07;;;;;;;4.06;46.30;97027.06;4950157;28;20572;-70
2023/02/26 04:37:51;;;;;;;6.03;3.00;;;;;;;4.09;45.78;97034.59;4950626;28;20261;-69
2023/02/26 04:40:17;;;;;;;5.67;2.80;;;;;;;4.11;46.01;97045.69;4957505;28;20217;-68
2023/02/26 04:42:42;;;;;;;6.53;2.80;;;;;;;4.10;46.00;97040.59;4957693;28;20194;-70
2023/02/26 04:45:08;;;;;;;5.43;2.93;;;;;;;4.02;46.77;97040.38;4950696;28;20841;-68
2023/02/26 04:47:33;;;;;;;4.93;2.80;;;;;;;4.04;46.12;97044.50;4956520;28;20406;-71
2023/02/26 04:49:59;;;;;;;5.23;2.87;;;;;;;4.04;46.24;97043.69;4949995;28;20269;-70
2023/02/26 04:52:24;;;;;;;3.30;2.97;;;;;;;4.02;46.56;97043.81;4949461;28;20182;-70
2023/02/26 04:54:50;;;;;;;5.27;2.30;;;;;;;3.97;46.30;97053.69;4951352;28;20218;-69
2023/02/26 04:57:15;;;;;;;5.10;2.80;;;;;;;3.99;46.55;97042.25;4949501;28;20182;-68
2023/02/26 04:59:41;;;;;;;6.50;2.80;;;;;;;4.02;45.89;97043.81;4957659;28;20663;-70
2023/02/26 05:02:06;;;;;;;3.00;2.70;;;;;;;3.97;46.36;97051.91;4955096;28;20181;-70
2023/02/26 05:04:32;;;;;;;8.90;2.77;;;;;;;3.99;46.42;97046.63;4949358;28;20205;-70
2023/02/26 05:06:57;;;;;;;4.80;2.30;;;;;;;3.99;46.77;97051.81;4955891;28;20189;-72
2023/02/26 05:09:22;;;;;;;4.43;2.73;;;;;;;4.02;46.42;97051.59;4950453;28;20193;-70
2023/02/26 05:11:48;;;;;;;3.40;2.53;;;;;;;3.88;46.61;97059.56;4957945;28;20213;-71
2023/02/26 05:14:14;;;;;;;3.97;2.70;;;;;;;3.95;46.40;97060.75;4951888;28;20309;-71
2023/02/26 05:16:40;;;;;;;4.57;3.17;;;;;;;3.91;46.82;97064.50;4972522;28;20559;-70
2023/02/26 05:19:05;;;;;;;4.23;3.00;;;;;;;3.94;46.25;97065.13;4949505;28;20438;-69
2023/02/26 05:21:31;;;;;;;3.80;3.23;;;;;;;3.89;46.56;97062.03;4932585;28;20290;-70
2023/02/26 05:23:56;;;;;;;5.63;2.93;;;;;;;3.88;46.26;97070.75;4950294;28;20301;-71
2023/02/26 05:26:22;;;;;;;4.40;2.83;;;;;;;3.88;46.54;97069.94;4957292;28;20309;-70
2023/02/26 05:28:48;;;;;;;5.07;3.10;;;;;;;3.84;46.01;97067.56;4951837;28;20190;-70
2023/02/26 05:31:14;;;;;;;3.40;2.60;;;;;;;3.83;46.41;97071.09;4952743;28;20186;-69
2023/02/26 05:33:39;;;;;;;4.77;2.40;;;;;;;3.84;46.44;97083.13;4949891;28;20213;-70
2023/02/26 05:36:06;;;;;;;3.47;2.63;;;;;;;3.74;46.85;97076.13;4958176;28;20551;-70
2023/02/26 05:38:32;;;;;;;3.50;2.37;;;;;;;3.68;46.96;97080.00;4949335;28;20317;-69
2023/02/26 05:40:57;;;;;;;4.67;2.80;;;;;;;3.68;46.85;97088.59;4948583;28;20422;-69
2023/02/26 05:43:23;;;;;;;7.87;3.90;;;;;;;3.61;47.08;97091.75;4965194;28;20446;-69
2023/02/26 05:45:50;;;;;;;4.50;2.50;;;;;;;3.54;47.05;97089.59;4960316;28;20208;-68
2023/02/26 05:48:15;;;;;;;4.10;2.97;;;;;;;3.54;47.02;97094.78;4950319;28;20624;-70
2023/02/26 05:50:41;;;;;;;5.03;3.13;;;;;;;3.43;47.49;97101.69;4950462;28;20501;-70
2023/02/26 05:53:06;;;;;;;7.87;3.50;;;;;;;3.51;47.95;97100.19;4962558;28;20641;-71
2023/02/26 05:55:32;;;;;;;9.80;5.13;;;;;;;3.53;47.59;97095.72;4955979;28;20254;-71
2023/02/26 05:57:57;;;;;;;6.90;3.80;;;;;;;3.54;47.49;97104.31;4949868;28;20193;-70
2023/02/26 06:00:23;;;;;;;6.20;2.77;;;;;;;3.57;48.01;97113.63;4955144;28;20736;-70
2023/02/26 06:02:48;;;;;;;5.67;2.83;;;;;;;3.59;46.90;97111.75;4949380;28;20186;-71
2023/02/26 06:05:14;;;;;;;5.70;2.63;;;;;;;3.58;46.84;97115.28;4931885;28;20252;-69
2023/02/26 06:07:39;;;;;;;4.50;2.47;;;;;;;3.57;47.22;97119.66;4957373;28;20384;-69
2023/02/26 06:10:07;;;;;;;3.17;2.47;;;;;;;3.35;47.71;97121.19;4956516;28;20662;-69
2023/02/26 06:12:33;;;;;;;5.53;3.03;;;;;;;3.45;47.91;97129.13;4958362;28;20566;-69
2023/02/26 06:14:58;;;;;;;2.40;2.07;;;;;;;3.50;48.21;97133.97;4958158;28;20482;-68
2023/02/26 06:17:25;;;;;;;5.70;3.10;;;;;;;3.43;48.19;97138.78;4957489;28;20543;-70
2023/02/26 06:19:51;;;;;;;4.60;2.40;;;;;;;3.45;47.90;97136.09;4960315;28;20969;-70
2023/02/26 06:22:17;;;;;;;5.17;2.50;;;;;;;3.47;48.05;97140.22;4951487;28;20502;-69
2023/02/26 06:24:42;;;;;;;4.80;3.17;;;;;;;3.45;47.51;97136.91;4948957;28;20202;-69
2023/02/26 06:27:07;;;;;;;4.83;2.97;;;;;;;3.47;47.60;97147.16;4949784;28;20208;-70
2023/02/26 06:29:33;;;;;;;4.50;2.70;;;;;;;3.49;47.58;97148.72;4945834;28;20194;-68
2023/02/26 06:31:59;;;;;;;5.73;2.77;;;;;;;3.51;47.44;97162.41;4950338;28;20199;-70
2023/02/26 06:34:24;;;;;;;4.40;2.53;;;;;;;3.47;47.58;97163.53;4948733;28;20214;-69
2023/02/26 06:36:49;;;;;;;5.23;2.70;;;;;;;3.46;47.70;97168.84;4954612;28;20576;-71
2023/02/26 06:39:15;;;;;;;8.50;2.47;;;;;;;3.44;47.42;97160.34;4948222;28;20191;-68
2023/02/26 06:41:40;;;;;;;5.83;2.87;;;;;;;3.44;47.48;97176.72;4934335;28;20193;-70
2023/02/26 06:44:06;;;;;;;3.23;2.77;;;;;;;3.47;47.63;97173.06;4957460;28;20548;-70
2023/02/26 06:46:32;;;;;;;5.13;3.00;;;;;;;3.57;47.73;97186.19;4955394;28;20277;-69
2023/02/26 06:48:57;;;;;;;7.43;3.40;;;;;;;3.47;48.04;97184.28;4964087;28;20321;-70
2023/02/26 06:51:23;;;;;;;9.40;4.07;;;;;;;3.52;48.19;97195.16;4938637;28;20699;-71
2023/02/26 06:53:48;;;;;;;4.87;3.10;;;;;;;3.62;48.10;97200.50;4953136;28;20574;-70
2023/02/26 06:56:14;;;;;;;7.43;5.23;;;;;;;3.59;47.81;97194.69;4952751;28;20234;-71
2023/02/26 06:58:39;;;;;;;5.83;3.77;;;;;;;3.64;47.76;97203.81;4954320;28;20190;-70
2023/02/26 07:01:04;;;;;;;6.40;3.80;;;;;;;3.67;47.82;97207.94;4952861;28;20281;-69
2023/02/26 07:03:30;;;;;;;6.60;3.10;;;;;;;3.73;47.59;97207.53;4956840;28;20210;-68
2023/02/26 07:05:56;;;;;;;8.60;3.23;;;;;;;3.75;47.92;97210.00;4966273;28;20186;-69
2023/02/26 07:08:22;;;;;;;4.37;2.97;;;;;;;3.73;47.35;97222.22;4954799;28;20190;-69
2023/02/26 07:10:48;;;;;;;6.83;2.90;;;;;;;3.76;47.27;97220.28;4935759;29;20257;-70
2023/02/26 07:13:14;;;;;;;6.03;3.13;;;;;;;3.69;47.45;97219.03;4962575;28;20935;-72
2023/02/26 07:15:40;;;;;;;5.97;3.50;;;;;;;3.67;47.56;97220.91;4953801;28;20235;-70
2023/02/26 07:18:05;;;;;;;4.80;2.93;;;;;;;3.72;47.81;97216.22;4952749;28;20434;-71
2023/02/26 07:20:31;;;;;;;12.93;3.23;;;;;;;3.76;48.22;97216.84;4953575;28;20721;-72
2023/02/26 07:22:56;;;;;;;6.30;3.00;;;;;;;3.75;47.35;97220.34;4960415;28;20199;-71
2023/02/26 07:25:23;;;;;;;6.30;3.40;;;;;;;3.69;47.90;97219.03;4953157;28;20182;-70
2023/02/26 07:27:49;;;;;;;20.70;3.40;;;;;;;3.72;47.80;97221.41;4956342;28;20555;-70
2023/02/26 07:30:15;;;;;;;6.40;3.37;;;;;;;3.77;47.83;97219.34;4949650;28;20418;-70
2023/02/26 07:32:43;;;;;;;6.07;2.67;;;;;;;3.84;47.46;97224.91;4953300;28;20191;-70
2023/02/26 07:35:09;;;;;;;4.00;2.70;;;;;;;3.91;47.60;97230.47;4952460;28;20210;-69
2023/02/26 07:37:35;;;;;;;6.43;3.27;;;;;;;4.05;47.82;97237.25;4951748;28;20450;-68
2023/02/26 07:40:00;;;;;;;3.47;2.93;;;;;;;4.11;47.69;97227.28;4950768;28;20190;-70
2023/02/26 07:42:26;;;;;;;5.37;3.70;;;;;;;4.26;47.39;97225.31;4956241;28;20277;-71
2023/02/26 07:44:51;;;;;;;4.93;3.20;;;;;;;4.38;47.18;97233.16;4936127;28;20734;-71
2023/02/26 07:47:17;;;;;;;4.77;3.50;;;;;;;4.46;46.92;97236.84;4969360;28;20185;-70
2023/02/26 07:49:42;;;;;;;5.10;3.23;;;;;;;4.38;46.25;97235.75;4953485;28;20756;-70
2023/02/26 07:52:08;;;;;;;2.90;2.70;;;;;;;4.37;46.56;97234.94;4957291;28;20278;-72
2023/02/26 07:54:34;;;;;;;5.13;2.70;;;;;;;4.33;46.07;97230.88;4951895;28;20643;-70
2023/02/26 07:57:00;;;;;;;5.10;2.67;;;;;;;4.18;46.16;97232.84;4952174;28;20209;-72
2023/02/26 07:59:25;;;;;;;7.60;2.97;;;;;;;3.99;46.73;97243.72;4953436;28;20991;-71
2023/02/26 08:01:51;;;;;;;4.93;2.67;;;;;;;3.94;46.99;97246.66;4945816;28;20185;-69
2023/02/26 08:04:16;;;;;;;4.53;2.67;;;;;;;3.69;47.31;97245.81;4933840;28;20739;-71
2023/02/26 08:06:41;;;;;;;4.60;3.10;;;;;;;3.69;47.66;97247.53;4956119;28;20182;-68
2023/02/26 08:09:07;;;;;;;5.50;3.13;;;;;;;3.51;47.84;97247.91;4958708;28;20190;-70
2023/02/26 08:11:35;;;;;;;5.83;2.60;;;;;;;3.54;48.91;97255.47;4921163;28;20186;-71
2023/02/26 08:14:01;;;;;;;2.50;2.30;;;;;;;3.49;49.72;97248.94;4961789;28;20228;-72
2023/02/26 08:16:27;;;;;;;3.70;2.40;;;;;;;3.35;50.88;97245.53;4951841;28;20481;-71
2023/02/26 08:18:52;;;;;;;4.17;2.40;;;;;;;3.48;50.69;97253.31;4934698;28;20460;-71
2023/02/26 08:21:18;;;;;;;7.60;3.30;;;;;;;3.62;50.77;97251.53;4951770;28;20187;-69
2023/02/26 08:23:43;;;;;;;5.93;2.63;;;;;;;3.80;50.05;97254.56;4951932;28;20584;-70
2023/02/26 08:26:10;;;;;;;4.47;2.23;;;;;;;4.09;49.46;97255.09;4953368;28;20178;-70
2023/02/26 08:28:36;;;;;;;4.33;3.00;;;;;;;4.29;49.11;97248.47;4951107;28;20198;-72
2023/02/26 08:31:01;;;;;;;4.60;2.73;;;;;;;4.52;48.10;97242.53;4934391;29;20484;-69
2023/02/26 08:33:27;;;;;;;6.03;2.90;;;;;;;4.58;47.67;97255.03;4960113;28;20249;-71
2023/02/26 08:35:54;;;;;;;5.00;2.70;;;;;;;4.63;46.81;97254.69;4942647;28;20213;-71
2023/02/26 08:38:20;;;;;;;5.73;2.80;;;;;;;4.53;47.04;97251.97;4953764;28;20434;-71
2023/02/26 08:40:48;;;;;;;2.83;2.33;;;;;;;4.25;46.55;97261.78;4956054;28;20556;-70
2023/02/26 08:43:13;;;;;;;3.50;2.43;;;;;;;4.03;47.27;97265.06;4963219;28;20237;-71
2023/02/26 08:45:39;;;;;;;3.07;2.30;;;;;;;4.13;47.36;97261.72;4932962;28;20894;-70
2023/02/26 08:48:04;;;;;;;6.63;3.10;;;;;;;4.12;47.49;97264.41;4962664;28;20186;-72
2023/02/26 08:50:30;;;;;;;4.90;2.40;;;;;;;3.94;47.97;97267.41;4939633;28;20683;-71
2023/02/26 08:52:55;;;;;;;5.57;2.43;;;;;;;3.90;48.72;97285.88;4954499;28;20844;-71
2023/02/26 08:55:21;;;;;;;8.10;3.03;;;;;;;4.04;49.22;97283.09;4951654;28;20696;-71
2023/02/26 08:57:46;;;;;;;5.30;2.40;;;;;;;4.08;48.58;97287.16;4949861;28;20191;-71
2023/02/26 09:00:15;;;;;;;3.80;2.67;;;;;;;3.92;48.15;97283.97;4948499;28;20220;-72
2023/02/26 09:02:41;;;;;;;4.97;2.30;;;;;;;3.89;48.35;97281.63;4961596;28;20190;-71
2023/02/26 09:05:07;;;;;;;4.60;3.03;;;;;;;3.87;48.16;97291.28;4962370;28;20823;-71
2023/02/26 09:07:32;;;;;;;5.53;3.30;;;;;;;3.80;48.46;97286.50;4960102;28;20265;-71
2023/02/26 09:09:58;;;;;;;4.23;2.80;;;;;;;3.57;48.20;97289.88;4953812;28;20803;-70
2023/02/26 09:12:23;;;;;;;2.70;2.43;;;;;;;3.50;48.55;97285.13;4954763;28;20190;-71
2023/02/26 09:14:49;;;;;;;6.63;2.57;;;;;;;3.45;48.90;97294.97;4954953;28;20812;-72
2023/02/26 09:17:14;;;;;;;5.37;2.63;;;;;;;3.49;49.10;97301.63;4956945;28;20182;-72
2023/02/26 09:19:40;;;;;;;8.20;2.40;;;;;;;3.36;49.31;97300.78;4949905;28;20274;-72
2023/02/26 09:22:05;;;;;;;3.40;2.47;;;;;;;3.40;49.49;97304.84;4952832;28;20188;-71
2023/02/26 09:24:31;;;;;;;4.17;2.40;;;;;;;3.37;49.38;97300.69;4958303;28;20297;-70
2023/02/26 09:26:56;;;;;;;5.87;2.10;;;;;;;3.26;50.05;97308.34;4958587;28;20196;-69
2023/02/26 09:29:21;;;;;;;3.93;2.63;;;;;;;3.35;49.80;97302.53;4953695;28;20187;-71
2023/02/26 09:31:47;;;;;;;4.37;3.00;;;;;;;3.19;49.99;97304.53;4961742;28;20197;-69
2023/02/26 09:34:12;;;;;;;3.50;2.70;;;;;;;3.21;50.54;97313.03;4951063;28;20240;-72
2023/02/26 09:36:38;;;;;;;4.97;2.30;;;;;;;3.11;50.48;97315.41;4950540;28;20876;-71
2023/02/26 09:39:04;;;;;;;3.57;2.17;;;;;;;3.26;50.33;97318.72;4951768;28;20182;-70
2023/02/26 09:41:49;;;;;;;6.50;2.40;;;;;;;3.21;50.57;97326.81;4951563;28;20445;-70
2023/02/26 09:44:44;;;;;;;3.43;2.60;;;;;;;3.25;51.45;97321.41;4953099;28;20561;-70
2023/02/26 09:47:18;;;;;;;3.40;2.10;;;;;;;3.22;51.01;97333.66;4937469;28;20442;-70
2023/02/26 09:50:00;;;;;;;6.43;2.50;;;;;;;3.23;50.82;97331.88;4950824;28;20512;-72
2023/02/26 09:52:34;;;;;;;5.17;2.70;;;;;;;3.19;51.24;97340.81;4962031;28;20435;-70
2023/02/26 09:55:09;;;;;;;3.77;2.30;;;;;;;3.24;51.33;97336.13;4950376;28;20505;-71
2023/02/26 09:57:36;;;;;;;6.10;2.50;;;;;;;3.23;51.56;97339.63;4957673;28;20531;-72
2023/02/26 10:00:43;;;;;;;4.07;2.50;;;;;;;3.29;51.60;97335.81;4971177;28;20426;-72
2023/02/26 10:03:18;;;;;;;6.20;2.40;;;;;;;3.31;51.43;97339.97;4879587;29;20468;-71
2023/02/26 10:05:59;;;;;;;6.10;2.53;;;;;;;3.20;51.70;97345.88;4951966;28;20432;-70
2023/02/26 10:08:29;;;;;;;4.17;2.27;;;;;;;3.25;51.79;97339.56;4963473;28;20425;-71
2023/02/26 10:11:10;;;;;;;3.07;2.07;;;;;;;3.33;51.33;97345.03;4975505;28;20520;-71
2023/02/26 10:13:46;;;;;;;2.47;2.27;;;;;;;3.22;51.56;97349.19;4950365;28;20453;-71
2023/02/26 10:16:25;;;;;;;4.03;2.50;;;;;;;3.19;51.69;97359.75;4922324;29;20531;-72
2023/02/26 10:18:55;;;;;;;5.53;2.50;;;;;;;3.30;51.68;97350.41;4950597;28;20432;-71
2023/02/26 10:21:41;;;;;;;4.73;3.60;;;;;;;3.09;52.33;97356.13;4945353;28;20454;-71
2023/02/26 10:24:13;;;;;;;4.83;3.07;;;;;;;3.10;52.66;97365.53;4985308;28;20441;-70
2023/02/26 10:26:42;;;;;;;2.77;2.23;;;;;;;3.06;52.74;97364.06;4953276;28;20931;-70
2023/02/26 10:29:25;;;;;;;4.33;2.67;;;;;;;3.07;52.66;97361.41;4944295;29;20783;-71
2023/02/26 10:32:09;;;;;;;6.47;2.20;;;;;;;3.17;52.69;97371.97;4946400;28;20425;-70
2023/02/26 10:34:42;;;;;;;5.33;2.70;;;;;;;3.14;53.03;97371.34;4952417;28;20557;-71
2023/02/26 10:37:23;;;;;;;5.47;3.10;;;;;;;3.18;52.90;97368.44;4971741;28;20929;-71
2023/02/26 10:40:22;;;;;;;4.57;2.77;;;;;;;3.25;52.52;97371.47;4952194;28;21096;-71
2023/02/26 10:42:52;;;;;;;3.00;2.50;;;;;;;3.10;52.85;97370.72;4961906;28;20437;-71
2023/02/26 10:45:42;;;;;;;2.70;2.50;;;;;;;3.21;53.04;97375.19;4973974;28;21221;-70
2023/02/26 10:48:18;;;;;;;5.17;2.70;;;;;;;3.26;51.79;97380.06;4939060;29;20437;-70
2023/02/26 10:50:49;;;;;;;2.53;2.23;;;;;;;3.31;52.20;97381.44;4961803;28;20792;-71
2023/02/26 10:53:14;;;;;;;4.23;2.47;;;;;;;3.42;51.62;97378.09;4953564;28;20455;-71
2023/02/26 10:55:48;;;;;;;3.30;2.27;;;;;;;3.52;51.37;97367.94;4967837;28;20465;-71
2023/02/26 10:58:24;;;;;;;5.73;2.37;;;;;;;3.52;51.19;97373.13;4960323;28;20217;-72
2023/02/26 11:00:53;;;;;;;5.63;2.40;;;;;;;3.50;50.39;97372.41;4971731;28;20523;-72
2023/02/26 11:03:23;;;;;;;2.77;2.10;;;;;;;3.58;50.77;97369.28;4960119;28;20492;-71
2023/02/26 11:05:49;;;;;;;3.53;2.50;;;;;;;3.66;50.74;97373.03;4946423;28;20413;-71
2023/02/26 11:08:15;;;;;;;3.80;2.50;;;;;;;3.64;50.72;97366.28;4957596;28;20431;-71
2023/02/26 11:10:46;;;;;;;3.27;2.40;;;;;;;3.68;50.52;97367.72;4953559;28;20221;-71
2023/02/26 11:13:12;;;;;;;4.47;2.83;;;;;;;3.74;50.57;97372.50;4955894;28;20273;-71
2023/02/26 11:15:37;;;;;;;2.90;2.47;;;;;;;3.76;50.03;97367.19;4952227;28;20500;-70
2023/02/26 11:18:03;;;;;;;5.80;2.53;;;;;;;3.88;50.45;97370.72;4953110;28;20183;-70
2023/02/26 11:20:32;;;;;;;5.90;2.20;;;;;;;3.91;49.77;97367.91;4959945;28;20186;-70
2023/02/26 11:22:59;;;;;;;3.73;2.70;;;;;;;3.95;50.05;97371.94;4964010;28;20596;-72
2023/02/26 11:25:27;;;;;;;7.03;2.37;;;;;;;3.98;49.32;97361.38;4978821;28;20480;-70
2023/02/26 11:28:05;;;;;;;2.60;2.40;;;;;;;4.08;49.05;97366.75;4979050;28;20432;-70
2023/02/26 11:30:36;;;;;;;4.03;2.70;;;;;;;4.12;48.70;97366.41;4968202;28;20420;-71
2023/02/26 11:33:21;;;;;;;4.60;2.73;;;;;;;4.27;49.25;97371.47;4953174;28;20458;-70
2023/02/26 11:35:47;;;;;;;2.10;1.90;;;;;;;4.32;48.46;97366.75;4956966;28;20469;-71
2023/02/26 11:38:19;;;;;;;3.00;2.17;;;;;;;4.08;48.09;97362.38;4968900;28;20429;-71
2023/02/26 11:40:47;;;;;;;3.00;2.60;;;;;;;4.03;48.42;97361.03;4951293;28;20430;-71
2023/02/26 11:43:17;;;;;;;2.47;2.10;;;;;;;4.18;48.95;97366.91;4975503;28;20434;-70
2023/02/26 11:45:44;;;;;;;4.03;2.20;;;;;;;4.18;48.44;97374.69;4935497;28;20518;-70
2023/02/26 11:48:14;;;;;;;4.13;2.70;;;;;;;4.06;48.07;97372.03;4943094;29;20430;-72
2023/02/26 11:50:43;;;;;;;3.10;2.17;;;;;;;3.99;48.24;97368.22;4961124;28;20537;-72
2023/02/26 11:53:24;;;;;;;3.27;2.90;;;;;;;4.07;48.13;97383.25;4977404;28;20530;-69
2023/02/26 11:55:58;;;;;;;2.40;2.20;;;;;;;4.02;48.11;97368.00;4957192;28;20454;-71